Time;durP1;ratioP1;P1;durP2;ratioP2;P2;SDS_P1;SDS_P2;PMS_P1;PMS_P2;Temp;Humidity;BMP_temperature;BMP_pressure;BME280_temperature;BME280_humidity;BME280_pressure;Samples;Min_cycle;Max_cycle;Signal;HPM_P1;HPM_P2
2021/01/05 00:06:21;;;;;;;5.53;5.03;;;;;;;;;;4181587;28;20098;-58
2021/01/05 00:08:47;;;;;;;5.90;5.20;;;;;;;;;;4163421;34;20117;-57
2021/01/05 00:11:13;;;;;;;5.37;4.87;;;;;;;;;;4162939;34;20111;-58
2021/01/05 00:13:38;;;;;;;5.32;4.82;;;;;;;;;;4163330;34;20615;-58
2021/01/05 00:16:05;;;;;;;5.00;4.53;;;;;;;;;;4162820;34;20114;-58
2021/01/05 00:18:31;;;;;;;4.95;4.55;;;;;;;;;;4163364;34;20173;-58
2021/01/05 00:20:56;;;;;;;6.28;5.68;;;;;;;;;;4163403;34;20111;-58
2021/01/05 00:23:22;;;;;;;5.62;5.12;;;;;;;;;;4165298;34;20131;-58
2021/01/05 00:25:48;;;;;;;5.57;5.07;;;;;;;;;;4165078;34;20254;-58
2021/01/05 00:28:14;;;;;;;6.25;5.65;;;;;;;;;;4165399;34;20110;-58
2021/01/05 00:30:40;;;;;;;5.20;4.70;;;;;;;;;;4165081;34;20118;-58
2021/01/05 00:33:06;;;;;;;5.53;5.03;;;;;;;;;;4165025;34;20615;-58
2021/01/05 00:35:35;;;;;;;6.00;5.40;;;;;;;;;;4152399;34;20523;-59
2021/01/05 00:38:04;;;;;;;7.15;5.07;;;;;;;;;;4164900;34;20098;-59
2021/01/05 00:40:30;;;;;;;6.00;5.40;;;;;;;;;;4152337;34;20231;-59
2021/01/05 00:42:57;;;;;;;6.20;5.60;;;;;;;;;;4152461;34;20107;-59
2021/01/05 00:45:25;;;;;;;7.70;6.25;;;;;;;;;;4152214;34;20207;-59
2021/01/05 00:47:50;;;;;;;6.47;5.87;;;;;;;;;;4141465;34;20105;-58
2021/01/05 00:50:16;;;;;;;6.47;5.82;;;;;;;;;;4164728;34;20131;-58
2021/01/05 00:52:42;;;;;;;7.15;6.00;;;;;;;;;;4165132;34;20463;-59
2021/01/05 00:55:09;;;;;;;7.28;6.53;;;;;;;;;;4152016;34;20119;-59
2021/01/05 00:57:35;;;;;;;6.68;5.97;;;;;;;;;;4165118;34;20128;-58
2021/01/05 01:00:03;;;;;;;7.22;6.10;;;;;;;;;;4164774;34;20612;-58
2021/01/05 01:02:29;;;;;;;5.97;5.47;;;;;;;;;;4164799;34;20173;-59
2021/01/05 01:04:55;;;;;;;6.55;5.90;;;;;;;;;;4166752;34;20126;-58
2021/01/05 01:07:21;;;;;;;6.40;5.70;;;;;;;;;;4178527;34;20125;-59
2021/01/05 01:09:47;;;;;;;6.70;6.10;;;;;;;;;;4165592;34;20203;-58
2021/01/05 01:12:17;;;;;;;7.00;6.30;;;;;;;;;;4178419;34;20518;-58
2021/01/05 01:14:43;;;;;;;7.50;6.72;;;;;;;;;;4178183;34;20098;-59
2021/01/05 01:17:09;;;;;;;7.20;6.50;;;;;;;;;;4165600;34;20330;-59
2021/01/05 01:19:35;;;;;;;7.03;6.32;;;;;;;;;;4178236;34;20114;-59
2021/01/05 01:22:02;;;;;;;7.87;6.70;;;;;;;;;;4178291;34;20163;-59
2021/01/05 01:24:27;;;;;;;6.85;6.22;;;;;;;;;;4178381;34;20110;-59
2021/01/05 01:26:53;;;;;;;7.47;6.75;;;;;;;;;;4178229;34;20117;-59
2021/01/05 01:29:24;;;;;;;6.93;6.22;;;;;;;;;;4165451;34;20095;-59
2021/01/05 01:31:50;;;;;;;8.25;6.97;;;;;;;;;;4178061;34;20532;-59
2021/01/05 01:34:16;;;;;;;7.05;6.35;;;;;;;;;;4165373;34;20118;-59
2021/01/05 01:36:42;;;;;;;7.53;6.82;;;;;;;;;;4178087;34;20118;-59
2021/01/05 01:39:08;;;;;;;7.45;6.40;;;;;;;;;;4175155;34;20111;-60
2021/01/05 01:41:34;;;;;;;7.72;7.03;;;;;;;;;;4164635;34;20503;-59
2021/01/05 01:44:01;;;;;;;8.35;7.00;;;;;;;;;;4140585;34;20119;-59
2021/01/05 01:46:31;;;;;;;7.00;6.10;;;;;;;;;;4164486;34;20087;-59
2021/01/05 01:48:56;;;;;;;7.22;6.53;;;;;;;;;;4140557;34;20451;-59
2021/01/05 01:51:22;;;;;;;9.02;6.70;;;;;;;;;;4151820;34;20126;-59
2021/01/05 01:54:19;;;;;;;7.28;6.57;;;;;;;;;;4140595;34;20118;-59
2021/01/05 01:57:00;;;;;;;8.77;6.60;;;;;;;;;;4164306;34;20114;-59
2021/01/05 01:59:44;;;;;;;8.00;6.70;;;;;;;;;;4164429;34;20106;-59
2021/01/05 02:02:11;;;;;;;7.70;6.60;;;;;;;;;;4141123;34;20119;-58
2021/01/05 02:04:58;;;;;;;7.10;6.40;;;;;;;;;;4140215;34;20143;-59
2021/01/05 02:07:51;;;;;;;7.10;6.40;;;;;;;;;;4172710;34;20090;-59
2021/01/05 02:10:29;;;;;;;7.37;6.68;;;;;;;;;;4177797;34;20110;-59
2021/01/05 02:13:01;;;;;;;6.93;6.28;;;;;;;;;;4165701;34;20107;-59
2021/01/05 02:15:34;;;;;;;7.40;6.70;;;;;;;;;;4177732;34;20206;-59
2021/01/05 02:18:05;;;;;;;6.75;6.05;;;;;;;;;;4177850;34;20209;-59
2021/01/05 02:20:53;;;;;;;7.70;6.93;;;;;;;;;;4177872;34;20103;-59
2021/01/05 02:23:43;;;;;;;7.03;5.90;;;;;;;;;;4165396;34;20099;-59
2021/01/05 02:26:27;;;;;;;7.28;6.40;;;;;;;;;;4177608;34;20122;-59
2021/01/05 02:28:56;;;;;;;7.32;6.62;;;;;;;;;;4165136;34;20145;-59
2021/01/05 02:31:42;;;;;;;7.57;6.75;;;;;;;;;;4177715;34;20098;-60
2021/01/05 02:34:29;;;;;;;7.32;6.62;;;;;;;;;;4166389;34;20458;-59
2021/01/05 02:37:10;;;;;;;7.07;6.47;;;;;;;;;;4164931;34;20095;-60
2021/01/05 02:39:39;;;;;;;7.32;6.62;;;;;;;;;;4165061;34;20133;-59
2021/01/05 02:42:31;;;;;;;7.12;6.43;;;;;;;;;;4177610;34;20117;-59
2021/01/05 02:45:10;;;;;;;8.77;6.82;;;;;;;;;;4163988;34;20110;-59
2021/01/05 02:47:39;;;;;;;7.22;6.53;;;;;;;;;;4154055;34;20554;-59
2021/01/05 02:50:12;;;;;;;7.37;6.68;;;;;;;;;;4177750;34;20098;-60
2021/01/05 02:52:47;;;;;;;7.35;6.65;;;;;;;;;;4177573;34;20149;-60
2021/01/05 02:55:38;;;;;;;7.40;6.53;;;;;;;;;;4177639;34;20467;-59
2021/01/05 02:58:40;;;;;;;7.22;6.53;;;;;;;;;;4177637;34;20114;-60
2021/01/05 03:01:25;;;;;;;7.40;6.70;;;;;;;;;;4177311;34;20189;-61
2021/01/05 03:03:51;;;;;;;6.68;6.07;;;;;;;;;;4177252;34;20238;-61
2021/01/05 03:06:29;;;;;;;6.80;6.20;;;;;;;;;;4164382;34;20539;-61
2021/01/05 03:09:33;;;;;;;6.87;6.18;;;;;;;;;;4164595;34;20527;-61
2021/01/05 03:12:25;;;;;;;7.65;6.78;;;;;;;;;;4177574;34;20106;-61
2021/01/05 03:14:55;;;;;;;7.35;6.65;;;;;;;;;;4164848;34;20503;-61
2021/01/05 03:17:31;;;;;;;7.68;6.62;;;;;;;;;;4164701;34;20097;-61
2021/01/05 03:20:06;;;;;;;7.75;7.05;;;;;;;;;;4153129;34;20122;-61
2021/01/05 03:22:33;;;;;;;6.95;6.28;;;;;;;;;;4177277;34;20207;-61
2021/01/05 03:24:59;;;;;;;7.47;6.78;;;;;;;;;;4164473;34;20115;-61
2021/01/05 03:27:26;;;;;;;6.95;6.32;;;;;;;;;;4153667;34;20103;-61
2021/01/05 03:29:54;;;;;;;7.68;6.87;;;;;;;;;;4164311;34;20098;-61
2021/01/05 03:32:22;;;;;;;7.35;6.65;;;;;;;;;;4177130;34;20114;-61
2021/01/05 03:34:48;;;;;;;8.25;7.32;;;;;;;;;;4176893;34;20118;-61
2021/01/05 03:37:14;;;;;;;7.30;6.60;;;;;;;;;;4177279;34;20118;-61
2021/01/05 03:39:40;;;;;;;7.18;6.43;;;;;;;;;;4176841;34;20225;-61
2021/01/05 03:42:06;;;;;;;8.20;7.40;;;;;;;;;;4177052;34;20106;-61
2021/01/05 03:44:33;;;;;;;7.87;7.10;;;;;;;;;;4177111;34;20120;-61
2021/01/05 03:46:59;;;;;;;7.78;7.07;;;;;;;;;;4164351;34;20087;-61
2021/01/05 03:49:25;;;;;;;7.55;6.85;;;;;;;;;;4176908;34;20125;-61
2021/01/05 03:51:51;;;;;;;8.30;6.95;;;;;;;;;;4177209;34;20107;-61
2021/01/05 03:54:16;;;;;;;7.80;7.03;;;;;;;;;;4177068;34;20137;-61
2021/01/05 03:56:42;;;;;;;7.55;6.85;;;;;;;;;;4177846;34;20129;-61
2021/01/05 03:59:08;;;;;;;7.43;6.68;;;;;;;;;;4178866;34;20144;-61
2021/01/05 04:01:34;;;;;;;7.12;6.43;;;;;;;;;;4179253;34;20103;-61
2021/01/05 04:04:00;;;;;;;7.90;7.15;;;;;;;;;;4166027;34;20133;-60
2021/01/05 04:06:27;;;;;;;8.75;7.40;;;;;;;;;;4179028;34;20177;-61
2021/01/05 04:08:53;;;;;;;7.45;6.65;;;;;;;;;;4167741;34;20102;-61
2021/01/05 04:11:19;;;;;;;7.53;6.82;;;;;;;;;;4164747;34;20137;-61
2021/01/05 04:13:45;;;;;;;8.00;7.05;;;;;;;;;;4174943;34;20122;-61
2021/01/05 04:16:11;;;;;;;7.35;6.65;;;;;;;;;;4175156;34;20514;-61
2021/01/05 04:18:37;;;;;;;8.23;7.43;;;;;;;;;;4154666;34;20551;-61
2021/01/05 04:21:03;;;;;;;8.00;7.30;;;;;;;;;;4178196;34;20129;-60
2021/01/05 04:23:29;;;;;;;8.10;7.30;;;;;;;;;;4178706;34;20105;-61
2021/01/05 04:25:55;;;;;;;7.65;6.87;;;;;;;;;;4165635;34;20555;-61
2021/01/05 04:28:20;;;;;;;8.85;7.95;;;;;;;;;;4178301;34;20115;-60
2021/01/05 04:30:46;;;;;;;7.57;6.87;;;;;;;;;;4178322;34;20141;-61
2021/01/05 04:33:12;;;;;;;7.78;7.07;;;;;;;;;;4178359;34;20496;-61
2021/01/05 04:35:39;;;;;;;8.25;7.45;;;;;;;;;;4165591;34;20099;-61
2021/01/05 04:38:05;;;;;;;8.20;7.40;;;;;;;;;;4165660;34;20095;-61
2021/01/05 04:40:32;;;;;;;8.57;7.75;;;;;;;;;;4177863;34;20138;-61
2021/01/05 04:43:09;;;;;;;7.60;6.90;;;;;;;;;;4165334;34;20444;-60
2021/01/05 04:45:43;;;;;;;9.75;7.65;;;;;;;;;;4154501;34;20095;-60
2021/01/05 04:49:02;;;;;;;8.07;7.28;;;;;;;;;;4154931;34;20440;-61
2021/01/05 04:51:48;;;;;;;7.72;6.93;;;;;;;;;;4169454;34;20499;-60
2021/01/05 04:54:18;;;;;;;;;;;;;;;;;;4155066;34;20198;-61
2021/01/05 04:57:21;;;;;;;8.80;7.90;;;;;;;;;;4165890;34;19989;-61
2021/01/05 04:59:48;;;;;;;8.50;7.70;;;;;;;;;;4165422;34;20125;-61
2021/01/05 05:02:46;;;;;;;8.93;8.02;;;;;;;;;;4165390;34;20153;-61
2021/01/05 05:05:24;;;;;;;10.23;9.27;;;;;;;;;;4166232;34;20138;-60
2021/01/05 05:08:11;;;;;;;8.88;8.07;;;;;;;;;;4177912;34;20539;-60
2021/01/05 05:10:57;;;;;;;9.77;8.88;;;;;;;;;;4178178;34;20115;-60
2021/01/05 05:13:44;;;;;;;9.73;8.85;;;;;;;;;;4152935;34;20117;-60
2021/01/05 05:16:29;;;;;;;10.70;9.70;;;;;;;;;;4147678;34;20098;-59
2021/01/05 05:19:25;;;;;;;9.75;8.75;;;;;;;;;;4178179;34;20134;-60
2021/01/05 05:21:58;;;;;;;10.80;9.73;;;;;;;;;;4177981;34;20189;-59
2021/01/05 05:24:53;;;;;;;10.25;9.25;;;;;;;;;;4154059;34;20230;-60
2021/01/05 05:27:48;;;;;;;10.23;9.10;;;;;;;;;;4177830;34;20195;-59
2021/01/05 05:30:19;;;;;;;11.75;10.57;;;;;;;;;;4177930;34;20103;-59
2021/01/05 05:32:47;;;;;;;10.25;9.32;;;;;;;;;;4154437;34;20451;-60
2021/01/05 05:35:33;;;;;;;10.40;9.40;;;;;;;;;;4153901;34;20119;-60
2021/01/05 05:38:01;;;;;;;9.55;8.65;;;;;;;;;;4165505;34;20141;-60
2021/01/05 05:40:46;;;;;;;10.48;9.48;;;;;;;;;;4178051;34;20507;-61
2021/01/05 05:43:38;;;;;;;10.32;9.32;;;;;;;;;;4177484;34;20139;-60
2021/01/05 05:46:09;;;;;;;10.23;9.20;;;;;;;;;;4166218;34;20129;-60
2021/01/05 05:48:41;;;;;;;10.35;9.38;;;;;;;;;;4154083;34;20150;-63
2021/01/05 05:51:13;;;;;;;9.82;8.93;;;;;;;;;;4154010;34;20114;-61
2021/01/05 05:53:53;;;;;;;9.88;8.88;;;;;;;;;;4165285;34;20091;-61
2021/01/05 05:56:19;;;;;;;10.18;9.18;;;;;;;;;;4164808;34;20111;-61
2021/01/05 05:58:52;;;;;;;9.02;8.13;;;;;;;;;;4165180;34;20122;-61
2021/01/05 06:01:34;;;;;;;10.00;9.10;;;;;;;;;;4165124;34;20123;-61
2021/01/05 06:04:00;;;;;;;10.35;9.35;;;;;;;;;;4153935;34;20446;-61
2021/01/05 06:06:26;;;;;;;9.55;8.70;;;;;;;;;;4164925;34;20122;-61
2021/01/05 06:08:52;;;;;;;8.65;7.75;;;;;;;;;;4153847;34;20150;-61
2021/01/05 06:11:18;;;;;;;9.05;8.15;;;;;;;;;;4177536;34;20125;-60
2021/01/05 06:13:44;;;;;;;9.18;8.27;;;;;;;;;;4177808;34;20115;-61
2021/01/05 06:16:10;;;;;;;7.95;7.25;;;;;;;;;;4177557;34;20125;-61
2021/01/05 06:18:36;;;;;;;8.68;7.47;;;;;;;;;;4177080;34;20142;-66
2021/01/05 06:21:02;;;;;;;8.27;7.47;;;;;;;;;;4177167;34;20152;-62
2021/01/05 06:23:28;;;;;;;8.82;7.97;;;;;;;;;;4177654;34;20612;-61
2021/01/05 06:25:54;;;;;;;7.95;7.15;;;;;;;;;;4177470;34;20673;-62
2021/01/05 06:28:20;;;;;;;7.90;7.20;;;;;;;;;;4177587;34;20125;-60
2021/01/05 06:30:45;;;;;;;9.70;7.75;;;;;;;;;;4177463;34;20118;-61
2021/01/05 06:33:11;;;;;;;8.82;7.93;;;;;;;;;;4177431;34;20118;-61
2021/01/05 06:35:37;;;;;;;9.05;8.15;;;;;;;;;;4177221;34;20118;-61
2021/01/05 06:38:03;;;;;;;9.32;8.43;;;;;;;;;;4164807;34;20579;-61
2021/01/05 06:40:29;;;;;;;8.20;7.37;;;;;;;;;;4176988;34;20138;-61
2021/01/05 06:42:55;;;;;;;8.25;7.45;;;;;;;;;;4177275;34;20219;-61
2021/01/05 06:45:26;;;;;;;8.02;7.22;;;;;;;;;;4177599;34;20114;-61
2021/01/05 06:47:52;;;;;;;8.13;7.32;;;;;;;;;;4177551;34;20197;-61
2021/01/05 06:50:19;;;;;;;7.72;6.87;;;;;;;;;;4177310;34;20547;-60
2021/01/05 06:52:44;;;;;;;8.07;7.28;;;;;;;;;;4177762;34;20122;-61
2021/01/05 06:55:11;;;;;;;6.62;6.03;;;;;;;;;;4177251;34;20462;-61
2021/01/05 06:57:37;;;;;;;6.80;6.15;;;;;;;;;;4177628;34;20245;-60
2021/01/05 07:00:07;;;;;;;6.50;5.80;;;;;;;;;;4176791;34;20506;-61
2021/01/05 07:02:33;;;;;;;6.57;5.18;;;;;;;;;;4174967;34;20209;-63
2021/01/05 07:04:59;;;;;;;6.75;6.07;;;;;;;;;;4176806;34;20133;-63
2021/01/05 07:07:25;;;;;;;7.28;6.03;;;;;;;;;;4177284;34;20115;-63
2021/01/05 07:09:51;;;;;;;6.12;5.53;;;;;;;;;;4177441;34;20229;-66
2021/01/05 07:12:17;;;;;;;6.68;6.07;;;;;;;;;;4177405;34;20415;-61
2021/01/05 07:14:43;;;;;;;7.03;5.97;;;;;;;;;;4177243;34;20134;-60
2021/01/05 07:17:09;;;;;;;6.18;5.57;;;;;;;;;;4177463;34;20110;-67
2021/01/05 07:19:35;;;;;;;6.70;6.00;;;;;;;;;;4177202;34;20098;-64
2021/01/05 07:22:01;;;;;;;6.75;5.82;;;;;;;;;;4177212;34;20458;-64
2021/01/05 07:24:27;;;;;;;6.93;6.05;;;;;;;;;;4164486;34;20518;-63
2021/01/05 07:26:53;;;;;;;7.12;6.43;;;;;;;;;;4177167;34;20480;-63
2021/01/05 07:29:20;;;;;;;6.50;5.90;;;;;;;;;;4176999;34;20241;-63
2021/01/05 07:31:46;;;;;;;6.22;5.37;;;;;;;;;;4163365;34;20106;-63
2021/01/05 07:34:12;;;;;;;6.40;5.80;;;;;;;;;;4177038;34;20106;-62
2021/01/05 07:36:41;;;;;;;8.32;5.82;;;;;;;;;;4177045;34;20126;-63
2021/01/05 07:39:15;;;;;;;6.07;5.45;;;;;;;;;;4153245;34;20118;-64
2021/01/05 07:41:41;;;;;;;7.03;6.00;;;;;;;;;;4164482;34;20112;-64
2021/01/05 07:44:06;;;;;;;6.82;6.20;;;;;;;;;;4176899;34;20205;-64
2021/01/05 07:46:32;;;;;;;6.28;5.53;;;;;;;;;;4176969;34;20111;-64
2021/01/05 07:48:58;;;;;;;5.57;5.07;;;;;;;;;;4176733;34;20125;-63
2021/01/05 07:51:24;;;;;;;6.12;5.43;;;;;;;;;;4176916;34;20129;-64
2021/01/05 07:53:50;;;;;;;6.32;5.72;;;;;;;;;;4176747;34;20146;-64
2021/01/05 07:56:16;;;;;;;6.20;5.60;;;;;;;;;;4164002;34;20122;-63
2021/01/05 07:58:42;;;;;;;6.20;5.60;;;;;;;;;;4176918;34;20110;-63
2021/01/05 08:01:08;;;;;;;6.32;5.72;;;;;;;;;;4176613;34;20134;-63
2021/01/05 08:03:33;;;;;;;6.60;6.00;;;;;;;;;;4176844;34;20118;-62
2021/01/05 08:05:59;;;;;;;6.32;5.72;;;;;;;;;;4176408;34;20479;-63
2021/01/05 08:08:26;;;;;;;6.60;6.00;;;;;;;;;;4152874;34;20551;-61
2021/01/05 08:10:51;;;;;;;7.25;6.12;;;;;;;;;;4176612;34;20134;-62
2021/01/05 08:13:17;;;;;;;6.30;5.70;;;;;;;;;;4176785;34;20464;-63
2021/01/05 08:15:43;;;;;;;7.70;6.90;;;;;;;;;;4176757;34;20551;-63
2021/01/05 08:18:12;;;;;;;7.55;6.85;;;;;;;;;;4176510;34;20192;-64
2021/01/05 08:20:38;;;;;;;6.30;5.70;;;;;;;;;;4163700;34;20130;-61
2021/01/05 08:23:04;;;;;;;6.97;6.28;;;;;;;;;;4176593;34;20158;-60
2021/01/05 08:25:36;;;;;;;6.40;5.80;;;;;;;;;;4176312;34;20102;-60
2021/01/05 08:28:02;;;;;;;6.30;5.40;;;;;;;;;;4176438;34;20114;-63
2021/01/05 08:30:33;;;;;;;6.00;5.40;;;;;;;;;;4176554;34;20098;-60
2021/01/05 08:33:01;;;;;;;5.97;5.28;;;;;;;;;;4152629;34;20106;-62
2021/01/05 08:35:27;;;;;;;5.53;4.72;;;;;;;;;;4176281;34;20551;-60
2021/01/05 08:37:53;;;;;;;5.75;5.15;;;;;;;;;;4152507;34;20114;-61
2021/01/05 08:40:28;;;;;;;5.10;4.60;;;;;;;;;;4163663;34;20133;-61
2021/01/05 08:42:55;;;;;;;5.75;5.15;;;;;;;;;;4165136;34;20482;-60
2021/01/05 08:45:21;;;;;;;6.43;5.55;;;;;;;;;;4178788;34;20130;-64
2021/01/05 08:47:47;;;;;;;5.05;4.55;;;;;;;;;;4165948;34;20440;-62
2021/01/05 08:50:19;;;;;;;5.87;5.30;;;;;;;;;;4166139;34;20123;-62
2021/01/05 08:52:45;;;;;;;5.53;5.03;;;;;;;;;;4178551;34;20106;-63
2021/01/05 08:55:12;;;;;;;5.37;4.87;;;;;;;;;;4178381;34;20554;-61
2021/01/05 08:57:37;;;;;;;5.62;4.87;;;;;;;;;;4178466;34;20087;-61
2021/01/05 09:00:07;;;;;;;6.50;5.15;;;;;;;;;;4178253;34;20102;-62
2021/01/05 09:02:33;;;;;;;6.53;5.03;;;;;;;;;;4178503;34;20121;-61
2021/01/05 09:04:59;;;;;;;5.82;5.32;;;;;;;;;;4165599;34;20115;-62
2021/01/05 09:07:25;;;;;;;6.25;5.65;;;;;;;;;;4178584;34;20122;-62
2021/01/05 09:09:52;;;;;;;6.70;6.10;;;;;;;;;;4178528;34;20121;-62
2021/01/05 09:12:18;;;;;;;7.05;6.18;;;;;;;;;;4178541;34;20137;-60
2021/01/05 09:14:44;;;;;;;6.57;5.95;;;;;;;;;;4178375;34;20126;-61
2021/01/05 09:17:13;;;;;;;6.07;5.47;;;;;;;;;;4178370;34;20562;-63
2021/01/05 09:19:40;;;;;;;7.53;6.80;;;;;;;;;;4178197;34;20138;-62
2021/01/05 09:22:06;;;;;;;6.57;5.97;;;;;;;;;;4178578;34;20113;-62
2021/01/05 09:24:32;;;;;;;6.62;5.93;;;;;;;;;;4178203;34;20189;-61
2021/01/05 09:26:58;;;;;;;6.85;6.18;;;;;;;;;;4178175;34;20515;-61
2021/01/05 09:29:24;;;;;;;6.97;6.28;;;;;;;;;;4178109;34;20110;-62
2021/01/05 09:31:51;;;;;;;6.97;6.37;;;;;;;;;;4160089;34;20406;-62
2021/01/05 09:34:18;;;;;;;7.00;6.35;;;;;;;;;;4164391;34;20571;-61
2021/01/05 09:36:44;;;;;;;6.05;5.45;;;;;;;;;;4164641;34;20094;-61
2021/01/05 09:39:15;;;;;;;5.80;5.20;;;;;;;;;;4164327;34;20169;-62
2021/01/05 09:41:46;;;;;;;6.68;5.97;;;;;;;;;;4151900;34;20126;-60
2021/01/05 09:44:12;;;;;;;6.62;5.93;;;;;;;;;;4164319;34;20201;-61
2021/01/05 09:46:39;;;;;;;6.93;6.22;;;;;;;;;;4164449;34;20154;-61
2021/01/05 09:49:24;;;;;;;6.55;5.90;;;;;;;;;;4151923;34;20178;-62
2021/01/05 09:51:59;;;;;;;7.13;6.53;;;;;;;;;;4164417;34;20142;-64
2021/01/05 09:54:25;;;;;;;6.60;6.00;;;;;;;;;;4152175;34;20121;-62
2021/01/05 09:56:55;;;;;;;7.72;6.15;;;;;;;;;;4164229;34;20176;-62
2021/01/05 09:59:22;;;;;;;6.15;5.55;;;;;;;;;;4164215;34;20097;-63
2021/01/05 10:01:47;;;;;;;6.60;5.90;;;;;;;;;;4164294;34;20117;-63
2021/01/05 10:04:14;;;;;;;5.65;5.15;;;;;;;;;;4164409;34;20625;-63
2021/01/05 10:06:40;;;;;;;7.43;5.25;;;;;;;;;;4164029;34;20098;-64
2021/01/05 10:09:08;;;;;;;5.90;5.28;;;;;;;;;;4164041;34;20607;-65
2021/01/05 10:11:37;;;;;;;5.85;5.30;;;;;;;;;;4164233;34;20099;-64
2021/01/05 10:14:03;;;;;;;6.10;5.50;;;;;;;;;;4151353;34;20098;-63
2021/01/05 10:16:29;;;;;;;5.40;4.90;;;;;;;;;;4164183;34;20115;-62
2021/01/05 10:18:55;;;;;;;6.05;5.45;;;;;;;;;;4164015;34;20115;-63
2021/01/05 10:21:24;;;;;;;7.10;6.43;;;;;;;;;;4164073;34;20103;-63
2021/01/05 10:23:50;;;;;;;8.52;7.70;;;;;;;;;;4164278;34;20127;-61
2021/01/05 10:26:16;;;;;;;6.55;5.93;;;;;;;;;;4151456;34;20218;-60
2021/01/05 10:28:42;;;;;;;5.43;4.93;;;;;;;;;;4151466;34;20538;-61
2021/01/05 10:31:08;;;;;;;5.20;4.70;;;;;;;;;;4163874;34;20324;-60
2021/01/05 10:33:34;;;;;;;5.40;4.85;;;;;;;;;;4177571;34;20102;-61
2021/01/05 10:36:01;;;;;;;4.97;4.47;;;;;;;;;;4177924;34;20455;-61
2021/01/05 10:38:27;;;;;;;6.00;4.87;;;;;;;;;;4177511;34;20223;-60
2021/01/05 10:40:53;;;;;;;4.97;4.18;;;;;;;;;;4177812;34;20162;-64
2021/01/05 10:43:19;;;;;;;4.97;4.47;;;;;;;;;;4177681;34;20559;-62
2021/01/05 10:45:45;;;;;;;4.07;3.30;;;;;;;;;;4177486;34;20145;-62
2021/01/05 10:48:11;;;;;;;5.03;3.87;;;;;;;;;;4177531;34;20182;-62
2021/01/05 10:50:37;;;;;;;4.10;3.70;;;;;;;;;;4153664;34;20103;-63
2021/01/05 10:53:03;;;;;;;4.85;4.32;;;;;;;;;;4153574;34;20202;-62
2021/01/05 10:55:29;;;;;;;5.40;4.80;;;;;;;;;;4164716;34;20114;-61
2021/01/05 10:57:54;;;;;;;4.82;4.32;;;;;;;;;;4177615;34;20110;-63
2021/01/05 11:00:21;;;;;;;5.78;5.18;;;;;;;;;;4177216;34;20138;-64
2021/01/05 11:02:47;;;;;;;4.03;3.33;;;;;;;;;;4177602;34;20114;-62
2021/01/05 11:05:14;;;;;;;3.80;3.20;;;;;;;;;;4163897;34;20129;-59
2021/01/05 11:07:40;;;;;;;3.75;3.20;;;;;;;;;;4164159;34;20432;-63
2021/01/05 11:10:07;;;;;;;3.85;3.45;;;;;;;;;;4163470;34;20484;-64
2021/01/05 11:12:33;;;;;;;4.12;3.72;;;;;;;;;;4139904;34;20197;-62
2021/01/05 11:14:59;;;;;;;4.68;4.20;;;;;;;;;;4163776;34;20193;-62
2021/01/05 11:17:25;;;;;;;5.43;4.90;;;;;;;;;;4150998;34;20523;-62
2021/01/05 11:19:51;;;;;;;4.78;4.32;;;;;;;;;;4163716;34;20115;-64
2021/01/05 11:22:17;;;;;;;6.47;5.87;;;;;;;;;;4163617;34;20211;-64
2021/01/05 11:24:46;;;;;;;3.60;3.17;;;;;;;;;;4163529;34;20105;-64
2021/01/05 11:27:16;;;;;;;4.03;3.47;;;;;;;;;;4163616;34;20106;-64
2021/01/05 11:29:43;;;;;;;3.45;3.00;;;;;;;;;;4163703;34;20095;-64
2021/01/05 11:32:11;;;;;;;3.75;3.45;;;;;;;;;;4153596;34;20491;-64
2021/01/05 11:34:37;;;;;;;8.60;7.40;;;;;;;;;;4164215;34;20140;-65
2021/01/05 11:37:07;;;;;;;5.10;4.60;;;;;;;;;;4177212;34;20125;-65
2021/01/05 11:39:33;;;;;;;5.82;4.80;;;;;;;;;;4164642;34;20506;-65
2021/01/05 11:41:59;;;;;;;5.28;4.78;;;;;;;;;;4177291;34;20157;-64
2021/01/05 11:44:25;;;;;;;5.18;4.70;;;;;;;;;;4177321;34;20137;-63
2021/01/05 11:46:51;;;;;;;5.03;4.15;;;;;;;;;;4176978;34;20110;-63
2021/01/05 11:49:17;;;;;;;4.43;3.40;;;;;;;;;;4164176;34;20154;-63
2021/01/05 11:51:43;;;;;;;4.60;4.15;;;;;;;;;;4176927;34;20122;-64
2021/01/05 11:54:09;;;;;;;4.43;3.80;;;;;;;;;;4176738;34;20145;-65
2021/01/05 11:56:35;;;;;;;3.90;3.40;;;;;;;;;;4176836;34;20536;-64
2021/01/05 11:59:02;;;;;;;4.12;3.72;;;;;;;;;;4176688;34;20094;-64
2021/01/05 12:01:33;;;;;;;5.55;4.95;;;;;;;;;;4164021;34;20182;-62
2021/01/05 12:03:59;;;;;;;5.20;4.28;;;;;;;;;;4163769;34;20178;-60
2021/01/05 12:06:25;;;;;;;3.92;2.90;;;;;;;;;;4161811;34;20482;-61
2021/01/05 12:08:51;;;;;;;3.90;3.50;;;;;;;;;;4170435;34;20122;-61
2021/01/05 12:11:25;;;;;;;3.80;3.40;;;;;;;;;;4163513;34;20123;-60
2021/01/05 12:13:51;;;;;;;3.53;3.05;;;;;;;;;;4163264;34;20122;-60
2021/01/05 12:16:32;;;;;;;3.28;2.97;;;;;;;;;;4163947;34;20500;-61
2021/01/05 12:19:02;;;;;;;4.10;3.30;;;;;;;;;;4177753;34;20198;-61
2021/01/05 12:21:30;;;;;;;3.80;3.08;;;;;;;;;;4178804;34;20144;-61
2021/01/05 12:23:56;;;;;;;3.62;3.28;;;;;;;;;;4178191;34;20129;-61
2021/01/05 12:26:27;;;;;;;3.15;2.75;;;;;;;;;;4165972;34;20198;-60
2021/01/05 12:28:53;;;;;;;3.20;2.90;;;;;;;;;;4165581;34;20118;-60
2021/01/05 12:31:19;;;;;;;3.30;3.00;;;;;;;;;;4178606;34;20130;-62
2021/01/05 12:33:45;;;;;;;3.22;2.92;;;;;;;;;;4178440;34;20544;-63
2021/01/05 12:36:10;;;;;;;3.55;3.12;;;;;;;;;;4178189;34;20671;-59
2021/01/05 12:38:36;;;;;;;3.10;2.80;;;;;;;;;;4165399;34;20525;-61
2021/01/05 12:41:03;;;;;;;3.95;3.00;;;;;;;;;;4178092;34;20110;-62
2021/01/05 12:43:29;;;;;;;3.15;2.85;;;;;;;;;;4178593;34;20134;-62
2021/01/05 12:45:55;;;;;;;3.85;3.37;;;;;;;;;;4165978;34;20749;-61
2021/01/05 12:48:21;;;;;;;3.90;3.40;;;;;;;;;;4178136;34;20157;-61
2021/01/05 12:50:47;;;;;;;3.65;3.10;;;;;;;;;;4178639;34;20153;-61
2021/01/05 12:53:13;;;;;;;3.65;3.00;;;;;;;;;;4171981;34;20101;-61
2021/01/05 12:55:39;;;;;;;3.62;3.17;;;;;;;;;;4178610;34;20106;-60
2021/01/05 12:58:05;;;;;;;3.12;2.70;;;;;;;;;;4177942;34;20112;-60
2021/01/05 13:00:31;;;;;;;3.15;2.85;;;;;;;;;;4165530;34;20522;-58
2021/01/05 13:02:57;;;;;;;3.55;3.05;;;;;;;;;;4165549;34;20128;-60
2021/01/05 13:05:23;;;;;;;3.33;3.03;;;;;;;;;;4178107;34;20126;-60
2021/01/05 13:07:49;;;;;;;3.70;3.40;;;;;;;;;;4177731;34;20125;-58
2021/01/05 13:10:15;;;;;;;4.45;4.05;;;;;;;;;;4177870;34;20217;-62
2021/01/05 13:12:43;;;;;;;4.80;4.40;;;;;;;;;;4177882;34;20165;-60
2021/01/05 13:15:13;;;;;;;6.35;4.80;;;;;;;;;;4177498;34;20099;-61
2021/01/05 13:17:42;;;;;;;6.35;4.97;;;;;;;;;;4164675;34;20189;-61
2021/01/05 13:20:10;;;;;;;5.82;5.32;;;;;;;;;;4153442;34;20157;-61
2021/01/05 13:22:39;;;;;;;9.15;8.25;;;;;;;;;;4177678;34;20114;-60
2021/01/05 13:25:07;;;;;;;7.28;6.57;;;;;;;;;;4171829;34;20099;-60
2021/01/05 13:27:33;;;;;;;6.28;5.37;;;;;;;;;;4164194;34;20134;-59
2021/01/05 13:30:00;;;;;;;6.22;5.62;;;;;;;;;;4154647;34;20091;-63
2021/01/05 13:32:28;;;;;;;5.87;5.18;;;;;;;;;;4177666;34;20177;-62
2021/01/05 13:34:56;;;;;;;6.72;4.07;;;;;;;;;;4177539;34;20609;-62
2021/01/05 13:37:22;;;;;;;5.22;4.72;;;;;;;;;;4177973;34;20098;-62
2021/01/05 13:39:48;;;;;;;5.18;4.57;;;;;;;;;;4164624;34;20103;-62
2021/01/05 13:42:16;;;;;;;5.75;5.10;;;;;;;;;;4165042;34;20110;-60
2021/01/05 13:44:42;;;;;;;5.87;5.37;;;;;;;;;;4164863;34;20145;-60
2021/01/05 13:47:12;;;;;;;8.63;7.82;;;;;;;;;;4177989;34;20226;-59
2021/01/05 13:49:38;;;;;;;6.25;5.65;;;;;;;;;;4164922;34;20121;-60
2021/01/05 13:52:07;;;;;;;6.05;5.35;;;;;;;;;;4177978;34;20294;-59
2021/01/05 13:54:33;;;;;;;6.72;6.10;;;;;;;;;;4176882;34;20121;-59
2021/01/05 13:57:00;;;;;;;69.68;53.90;;;;;;;;;;4176710;34;20103;-59
2021/01/05 13:59:25;;;;;;;6.18;5.55;;;;;;;;;;4176991;34;20115;-58
2021/01/05 14:01:53;;;;;;;4.43;4.03;;;;;;;;;;4164449;34;20120;-60
2021/01/05 14:04:19;;;;;;;4.82;4.32;;;;;;;;;;4176881;34;20561;-60
2021/01/05 14:06:45;;;;;;;6.15;5.55;;;;;;;;;;4163713;34;20129;-61
2021/01/05 14:09:10;;;;;;;5.90;5.30;;;;;;;;;;4177100;34;20552;-59
2021/01/05 14:11:36;;;;;;;6.35;5.62;;;;;;;;;;4173780;34;20170;-59
2021/01/05 14:14:02;;;;;;;6.15;5.20;;;;;;;;;;4151337;34;20126;-59
2021/01/05 14:16:28;;;;;;;5.78;5.05;;;;;;;;;;4151197;34;20204;-60
2021/01/05 14:18:54;;;;;;;5.12;4.62;;;;;;;;;;4151630;34;20130;-60
2021/01/05 14:21:33;;;;;;;6.00;5.40;;;;;;;;;;4164169;34;20117;-59
2021/01/05 14:24:00;;;;;;;7.12;4.60;;;;;;;;;;4163976;34;20102;-60
2021/01/05 14:26:30;;;;;;;5.93;5.32;;;;;;;;;;4151533;34;20775;-60
2021/01/05 14:28:59;;;;;;;6.68;6.00;;;;;;;;;;4140563;34;20141;-60
2021/01/05 14:31:26;;;;;;;7.37;5.93;;;;;;;;;;4164335;34;20098;-60
2021/01/05 14:33:52;;;;;;;5.62;5.03;;;;;;;;;;4151306;34;20114;-61
2021/01/05 14:36:32;;;;;;;6.47;5.75;;;;;;;;;;4163862;34;20610;-61
2021/01/05 14:38:58;;;;;;;6.62;5.82;;;;;;;;;;4152332;34;20449;-61
2021/01/05 14:41:35;;;;;;;6.32;5.62;;;;;;;;;;4150899;34;20099;-61
2021/01/05 14:44:03;;;;;;;6.03;5.47;;;;;;;;;;4140880;34;20128;-62
2021/01/05 14:46:35;;;;;;;5.47;4.97;;;;;;;;;;4163837;34;20632;-60
2021/01/05 14:49:01;;;;;;;5.20;4.70;;;;;;;;;;4151191;34;20109;-61
2021/01/05 14:51:28;;;;;;;4.85;4.43;;;;;;;;;;4163869;34;20102;-58
2021/01/05 14:53:54;;;;;;;4.82;4.32;;;;;;;;;;4151241;34;20127;-58
2021/01/05 14:56:20;;;;;;;4.53;4.12;;;;;;;;;;4151110;34;20549;-59
2021/01/05 14:58:46;;;;;;;5.12;4.35;;;;;;;;;;4163820;34;20114;-59
2021/01/05 15:01:16;;;;;;;4.12;3.75;;;;;;;;;;4163645;34;20137;-58